Time;durP1;ratioP1;P1;durP2;ratioP2;P2;SDS_P1;SDS_P2;PMS_P1;PMS_P2;Temp;Humidity;BMP_temperature;BMP_pressure;BME280_temperature;BME280_humidity;BME280_pressure;Samples;Min_cycle;Max_cycle;Signal;HPM_P1;HPM_P2
2021/08/24 00:00:46;;;;;;;5.50;3.70;;;14.80;1.00;15.20;101320.00;;;;4970005;28;20458;-82
2021/08/24 00:03:15;;;;;;;4.90;3.67;;;14.80;1.00;15.20;101316.00;;;;4968376;28;20467;-81
2021/08/24 00:05:46;;;;;;;4.07;3.60;;;14.80;1.00;15.20;101318.00;;;;4969365;28;21462;-81
2021/08/24 00:08:15;;;;;;;4.87;3.20;;;14.70;1.00;15.20;101320.00;;;;4970451;28;20463;-81
2021/08/24 00:10:48;;;;;;;6.87;3.83;;;14.70;1.00;15.20;101319.00;;;;4972129;28;20490;-82
2021/08/24 00:13:21;;;;;;;5.83;4.47;;;14.70;1.00;15.10;101282.00;;;;4985831;28;20547;-81
2021/08/24 00:15:50;;;;;;;4.40;3.83;;;14.70;1.00;15.20;101318.00;;;;4965535;28;20479;-81
2021/08/24 00:18:19;;;;;;;4.90;4.07;;;14.70;1.00;15.10;101330.00;;;;4968841;28;20463;-81
2021/08/24 00:20:50;;;;;;;4.70;3.97;;;14.60;1.00;15.10;101280.00;;;;4972077;28;20549;-81
2021/08/24 00:23:22;;;;;;;4.50;3.20;;;14.60;1.00;15.10;101300.00;;;;4964746;28;20541;-82
2021/08/24 00:25:52;;;;;;;3.77;3.40;;;14.60;1.00;15.00;101323.00;;;;4969389;28;20548;-81
2021/08/24 00:28:22;;;;;;;8.13;3.60;;;14.60;1.00;15.00;101312.00;;;;4972582;28;20484;-81
2021/08/24 00:30:51;;;;;;;4.97;2.87;;;14.50;1.00;14.90;101326.00;;;;4962837;28;20551;-81
2021/08/24 00:33:20;;;;;;;3.70;3.13;;;14.50;1.00;14.90;101332.00;;;;4986580;28;20547;-81
2021/08/24 00:35:49;;;;;;;4.77;3.10;;;14.50;1.00;14.90;101316.00;;;;4968769;28;20471;-81
2021/08/24 00:38:20;;;;;;;5.17;2.97;;;14.50;1.00;14.90;101330.00;;;;4976485;28;20511;-82
2021/08/24 00:40:55;;;;;;;4.47;2.83;;;14.50;1.00;14.90;101319.00;;;;4983619;28;20467;-82
2021/08/24 00:43:28;;;;;;;2.97;2.67;;;14.50;1.00;14.90;101323.00;;;;4980935;28;20456;-82
2021/08/24 00:46:14;;;;;;;4.23;2.80;;;14.50;1.00;14.80;101276.00;;;;4990457;28;20527;-82
2021/08/24 00:48:44;;;;;;;4.57;2.80;;;14.50;1.00;14.80;101333.00;;;;4987535;28;20463;-81
2021/08/24 00:51:17;;;;;;;5.67;2.90;;;14.40;1.00;14.80;101337.00;;;;4981251;28;20490;-83
2021/08/24 00:53:59;;;;;;;4.37;2.83;;;14.40;1.00;14.80;101324.00;;;;5009688;28;20495;-82
2021/08/24 00:56:31;;;;;;;3.47;2.63;;;14.40;1.00;14.80;101324.00;;;;4995917;28;20574;-82
2021/08/24 00:59:03;;;;;;;5.03;2.50;;;14.30;1.00;14.60;101341.00;;;;4997107;28;20655;-82
2021/08/24 01:01:32;;;;;;;3.37;3.00;;;14.50;1.00;14.70;101330.00;;;;4983860;28;20459;-80
2021/08/24 01:04:01;;;;;;;4.50;3.00;;;14.30;1.00;14.50;101345.00;;;;4974374;28;20491;-81
2021/08/24 01:06:38;;;;;;;4.63;2.87;;;14.20;1.00;14.50;101349.00;;;;4971470;28;20463;-82
2021/08/24 01:09:35;;;;;;;4.97;2.67;;;14.20;1.00;14.60;101296.00;;;;4980982;28;20611;-81
2021/08/24 01:12:16;;;;;;;4.83;3.17;;;14.20;1.00;14.60;101332.00;;;;4992967;28;20510;-80
2021/08/24 01:14:59;;;;;;;2.97;2.67;;;14.20;1.00;14.50;101311.00;;;;4974357;28;21060;-80
2021/08/24 01:17:35;;;;;;;6.33;3.00;;;14.10;1.00;14.50;101326.00;;;;4971025;28;20491;-79
2021/08/24 01:21:04;;;;;;;7.77;3.40;;;14.10;1.00;14.50;101279.00;;;;4969313;28;20458;-79
2021/08/24 01:23:51;;;;;;;3.07;2.57;;;14.00;1.00;14.50;101316.00;;;;4971911;28;20458;-82
2021/08/24 01:26:34;;;;;;;4.10;2.83;;;14.00;1.00;14.40;101341.00;;;;4971415;28;20475;-81
2021/08/24 01:29:39;;;;;;;6.10;3.40;;;14.00;1.00;14.40;101339.00;;;;4970747;28;20467;-80
2021/08/24 01:32:46;;;;;;;4.23;2.70;;;13.90;1.00;14.30;101333.00;;;;4984706;28;20455;-82
2021/08/24 01:35:43;;;;;;;4.83;2.80;;;13.90;1.00;14.30;101342.00;;;;4985394;28;20861;-83
2021/08/24 01:38:19;;;;;;;4.80;3.13;;;13.90;1.00;14.30;101341.00;;;;4974215;28;20471;-80
2021/08/24 01:40:57;;;;;;;7.73;3.00;;;13.80;1.00;14.20;101339.00;;;;4968181;28;20499;-81
2021/08/24 01:43:33;;;;;;;5.07;2.97;;;13.80;1.00;14.20;101340.00;;;;4971117;28;20455;-80
2021/08/24 01:46:14;;;;;;;4.73;3.13;;;13.80;1.00;14.20;101332.00;;;;4970520;28;20975;-80
2021/08/24 01:48:47;;;;;;;5.90;3.20;;;13.80;1.00;14.10;101332.00;;;;4968404;28;21319;-81
2021/08/24 01:51:21;;;;;;;4.20;2.70;;;13.80;1.00;14.10;101327.00;;;;4960669;28;20459;-80
2021/08/24 01:53:57;;;;;;;6.90;3.37;;;13.80;1.00;14.20;101340.00;;;;4964047;28;20479;-82
2021/08/24 01:56:32;;;;;;;5.13;3.60;;;13.80;1.00;14.20;101347.00;;;;4967649;28;20546;-80
2021/08/24 01:59:07;;;;;;;6.47;2.80;;;13.70;1.00;14.10;101344.00;;;;4970860;28;20469;-80
2021/08/24 02:01:40;;;;;;;3.33;2.73;;;13.70;1.00;14.10;101333.00;;;;4982489;28;20562;-82
2021/08/24 02:04:18;;;;;;;5.73;3.10;;;13.70;1.00;14.10;101341.00;;;;4991012;28;20475;-82
2021/08/24 02:06:49;;;;;;;4.07;2.90;;;13.80;1.00;14.10;101340.00;;;;4988799;28;20546;-80
2021/08/24 02:09:25;;;;;;;5.40;2.97;;;13.60;1.00;14.10;101318.00;;;;4984741;28;20451;-79
2021/08/24 02:11:54;;;;;;;5.13;3.13;;;13.60;1.00;14.00;101338.00;;;;4970315;28;20470;-82
2021/08/24 02:14:24;;;;;;;4.60;2.97;;;13.60;1.00;14.00;101341.00;;;;4971414;28;20550;-80
2021/08/24 02:16:55;;;;;;;5.90;3.30;;;13.50;1.00;14.00;101338.00;;;;4968770;28;20887;-79
2021/08/24 02:19:28;;;;;;;4.53;3.17;;;13.50;1.00;14.00;101315.00;;;;4969679;28;20456;-80
2021/08/24 02:22:04;;;;;;;7.13;3.33;;;13.50;1.00;14.00;101331.00;;;;4985695;28;20452;-81
2021/08/24 02:24:43;;;;;;;3.93;3.10;;;13.50;1.00;13.90;101342.00;;;;4968419;28;20562;-82
2021/08/24 02:27:18;;;;;;;5.10;2.90;;;13.40;1.00;13.90;101339.00;;;;4961092;28;20467;-83
2021/08/24 02:29:46;;;;;;;4.63;3.23;;;13.40;1.00;13.90;101351.00;;;;4969637;28;20459;-82
2021/08/24 02:32:21;;;;;;;3.03;2.47;;;13.40;1.00;13.80;101343.00;;;;4960977;28;20873;-80
2021/08/24 02:34:55;;;;;;;3.23;2.57;;;13.30;1.00;13.80;101341.00;;;;4961162;28;20869;-82
2021/08/24 02:37:30;;;;;;;5.03;3.33;;;13.30;1.00;13.80;101347.00;;;;4966657;28;20483;-80
2021/08/24 02:40:09;;;;;;;3.43;3.13;;;13.40;1.00;13.80;101344.00;;;;4971358;28;20451;-82
2021/08/24 02:42:47;;;;;;;5.87;3.23;;;13.30;1.00;13.80;101338.00;;;;4969600;28;20497;-80
2021/08/24 02:45:25;;;;;;;4.20;2.83;;;13.30;1.00;13.80;101337.00;;;;4969289;28;20485;-80
2021/08/24 02:47:55;;;;;;;3.10;2.67;;;13.30;1.00;13.70;101347.00;;;;4963101;28;21041;-82
2021/08/24 02:50:24;;;;;;;3.30;2.50;;;13.30;1.00;13.70;101319.00;;;;4988642;28;20461;-81
2021/08/24 02:52:54;;;;;;;5.30;2.80;;;13.20;1.00;13.70;101303.00;;;;4975204;28;20476;-81
2021/08/24 02:55:24;;;;;;;6.43;2.73;;;13.20;1.00;13.70;101356.00;;;;4976114;28;20483;-79
2021/08/24 02:57:52;;;;;;;5.20;2.70;;;13.20;1.00;13.60;101347.00;;;;4977231;28;20471;-80
2021/08/24 03:00:21;;;;;;;6.47;3.20;;;13.10;1.00;13.60;101322.00;;;;4978556;28;20490;-80
2021/08/24 03:02:50;;;;;;;6.80;3.30;;;13.10;1.00;13.60;101340.00;;;;4974367;28;20460;-81
2021/08/24 03:05:19;;;;;;;4.43;2.67;;;13.10;1.00;13.50;101345.00;;;;4978737;28;20503;-80
2021/08/24 03:07:48;;;;;;;3.93;2.70;;;13.10;1.00;13.50;101358.00;;;;4975861;28;20481;-78
2021/08/24 03:10:23;;;;;;;4.17;3.10;;;13.10;1.00;13.50;101337.00;;;;4996059;28;20464;-78
2021/08/24 03:13:05;;;;;;;3.20;2.47;;;13.10;1.00;13.50;101341.00;;;;4991534;28;20467;-78
2021/08/24 03:15:40;;;;;;;6.30;3.17;;;13.10;1.00;13.50;101358.00;;;;4992369;28;20568;-80
2021/08/24 03:18:16;;;;;;;5.27;3.07;;;13.10;1.00;13.50;101328.00;;;;4997369;28;20467;-77
2021/08/24 03:20:48;;;;;;;3.50;2.70;;;13.10;1.00;13.50;101332.00;;;;4993245;28;20467;-79
2021/08/24 03:23:19;;;;;;;4.93;3.13;;;13.10;1.00;13.50;101316.00;;;;4997497;28;20447;-79
2021/08/24 03:25:51;;;;;;;4.83;2.70;;;13.00;1.00;13.50;101351.00;;;;4991597;28;20546;-79
2021/08/24 03:28:23;;;;;;;5.40;3.33;;;13.00;1.00;13.50;101346.00;;;;4987747;28;20466;-79
2021/08/24 03:30:52;;;;;;;4.10;2.83;;;13.00;1.00;13.40;101339.00;;;;4970386;28;20490;-79
2021/08/24 03:33:21;;;;;;;4.83;3.17;;;12.90;1.00;13.40;101293.00;;;;4970700;28;20470;-79
2021/08/24 03:35:50;;;;;;;4.90;3.23;;;12.90;1.00;13.30;101325.00;;;;4989797;28;20482;-79
2021/08/24 03:38:18;;;;;;;6.40;3.23;;;12.90;1.00;13.30;101339.00;;;;4974171;28;20498;-79
2021/08/24 03:40:49;;;;;;;6.17;3.30;;;12.80;1.00;13.20;101320.00;;;;4969542;28;20490;-79
2021/08/24 03:43:17;;;;;;;3.80;2.90;;;12.80;1.00;13.20;101340.00;;;;4971786;28;20463;-79
2021/08/24 03:45:46;;;;;;;4.67;3.37;;;12.70;1.00;13.20;101340.00;;;;4968831;28;20466;-79
2021/08/24 03:48:15;;;;;;;5.70;3.00;;;12.70;1.00;13.20;101320.00;;;;4971673;28;20822;-80
2021/08/24 03:50:43;;;;;;;5.73;3.13;;;12.70;1.00;13.20;101315.00;;;;4964133;28;20466;-79
2021/08/24 03:53:13;;;;;;;4.17;2.90;;;12.70;1.00;13.20;101351.00;;;;4972254;28;20524;-79
2021/08/24 03:55:43;;;;;;;7.50;3.30;;;12.60;1.00;13.10;101332.00;;;;4975023;28;20466;-80
2021/08/24 03:58:13;;;;;;;4.57;3.63;;;12.60;1.00;13.10;101344.00;;;;4984886;28;20535;-79
2021/08/24 04:00:44;;;;;;;5.00;3.60;;;12.60;1.00;13.10;101364.00;;;;4982556;28;20486;-79
2021/08/24 04:03:13;;;;;;;5.70;2.93;;;12.70;1.00;13.10;101351.00;;;;5006746;28;20471;-78
2021/08/24 04:05:42;;;;;;;5.27;3.77;;;12.60;1.00;13.00;101370.00;;;;4980102;28;20475;-80
2021/08/24 04:08:10;;;;;;;5.10;3.83;;;12.50;1.00;13.00;101367.00;;;;4975114;28;20483;-79
2021/08/24 04:10:39;;;;;;;6.70;3.83;;;12.60;1.00;13.00;101365.00;;;;4974187;28;20447;-79
2021/08/24 04:13:07;;;;;;;7.00;3.60;;;12.60;1.00;13.00;101356.00;;;;4974974;28;20448;-79
2021/08/24 04:15:37;;;;;;;5.40;3.63;;;12.50;1.00;13.00;101362.00;;;;4976995;28;21966;-79
2021/08/24 04:18:06;;;;;;;7.00;3.23;;;12.50;1.00;13.00;101362.00;;;;4979639;28;21014;-79
2021/08/24 04:20:35;;;;;;;5.03;2.80;;;12.50;1.00;12.90;101384.00;;;;4982619;28;20456;-79
2021/08/24 04:23:03;;;;;;;6.20;3.10;;;12.50;1.00;12.90;101356.00;;;;4976285;28;20452;-81
2021/08/24 04:25:32;;;;;;;4.90;3.27;;;12.50;1.00;12.90;101370.00;;;;4977270;28;20479;-79
2021/08/24 04:28:00;;;;;;;4.73;3.20;;;12.40;1.00;12.90;101380.00;;;;4971661;28;20456;-79
2021/08/24 04:30:28;;;;;;;6.53;4.10;;;12.40;1.00;12.90;101351.00;;;;4990469;28;20528;-79
2021/08/24 04:32:58;;;;;;;5.90;3.30;;;12.40;1.00;12.90;101379.00;;;;4985436;28;20523;-79
2021/08/24 04:35:26;;;;;;;3.73;3.00;;;12.40;1.00;12.90;101348.00;;;;4985151;28;20552;-79
2021/08/24 04:37:55;;;;;;;7.20;3.50;;;12.40;1.00;12.90;101379.00;;;;4986404;28;20494;-79
2021/08/24 04:40:27;;;;;;;4.30;3.30;;;12.40;1.00;12.80;101390.00;;;;4982363;28;20467;-79
2021/08/24 04:42:55;;;;;;;5.10;3.17;;;12.40;1.00;12.90;101380.00;;;;4994431;28;20462;-78
2021/08/24 04:45:24;;;;;;;6.97;4.00;;;12.40;1.00;13.00;101369.00;;;;4988627;28;20475;-78
2021/08/24 04:47:53;;;;;;;4.60;3.20;;;12.40;1.00;13.00;101386.00;;;;4994313;28;21274;-78
2021/08/24 04:50:23;;;;;;;5.00;3.50;;;12.50;1.00;13.10;101365.00;;;;4988245;28;20473;-79
2021/08/24 04:52:51;;;;;;;4.60;2.90;;;12.50;1.00;13.10;101388.00;;;;4978682;28;20463;-79
2021/08/24 04:55:20;;;;;;;4.93;3.67;;;12.60;1.00;13.10;101378.00;;;;4980855;28;20487;-81
2021/08/24 04:57:48;;;;;;;4.50;3.23;;;12.60;1.00;13.20;101329.00;;;;4980911;28;20509;-80
2021/08/24 05:00:17;;;;;;;4.03;3.10;;;12.60;1.00;13.20;101391.00;;;;4982132;28;20462;-80
2021/08/24 05:02:46;;;;;;;4.40;2.93;;;12.70;1.00;13.30;101406.00;;;;4979906;28;20470;-80
2021/08/24 05:05:15;;;;;;;4.23;3.17;;;12.80;1.00;13.40;101401.00;;;;4979831;28;20475;-78
2021/08/24 05:07:45;;;;;;;4.27;3.33;;;12.80;1.00;13.40;101359.00;;;;4979165;28;20527;-79
2021/08/24 05:10:13;;;;;;;5.33;3.17;;;12.80;1.00;13.50;101393.00;;;;4977349;28;20466;-79
2021/08/24 05:12:42;;;;;;;6.47;2.90;;;12.90;1.00;13.50;101383.00;;;;4977052;28;20523;-79
2021/08/24 05:15:11;;;;;;;5.53;3.40;;;12.90;1.00;13.60;101395.00;;;;4976460;28;20482;-78
2021/08/24 05:17:40;;;;;;;3.97;2.90;;;12.90;1.00;13.60;101397.00;;;;4982039;28;21637;-79
2021/08/24 05:20:10;;;;;;;10.03;2.90;;;13.00;1.00;13.50;101395.00;;;;4973208;28;20459;-79
2021/08/24 05:22:39;;;;;;;6.07;2.90;;;13.10;1.00;13.70;101394.00;;;;4969972;28;20459;-79
2021/08/24 05:25:12;;;;;;;4.33;2.50;;;13.20;1.00;13.80;101394.00;;;;4983422;28;20458;-79
2021/08/24 05:27:41;;;;;;;3.97;2.60;;;13.20;1.00;13.90;101396.00;;;;4996159;28;20466;-80
2021/08/24 05:30:14;;;;;;;6.93;2.77;;;13.30;1.00;13.90;101389.00;;;;4996236;28;20520;-81
2021/08/24 05:32:42;;;;;;;4.70;3.00;;;13.30;1.00;14.00;101391.00;;;;4995935;28;20449;-79
2021/08/24 05:35:12;;;;;;;7.33;2.90;;;13.40;1.00;14.00;101394.00;;;;4983902;28;20502;-80
2021/08/24 05:37:42;;;;;;;8.03;2.90;;;13.40;1.00;14.10;101401.00;;;;4980768;28;20455;-80
2021/08/24 05:40:13;;;;;;;5.17;3.17;;;13.50;1.00;14.20;101414.00;;;;4981494;28;20456;-79
2021/08/24 05:42:42;;;;;;;7.93;2.90;;;13.60;1.00;14.20;101409.00;;;;4980069;28;20574;-80
2021/08/24 05:45:11;;;;;;;4.67;2.83;;;13.60;1.00;14.30;101404.00;;;;4976084;28;20537;-79
2021/08/24 05:47:40;;;;;;;5.37;3.23;;;13.70;1.00;14.30;101403.00;;;;4971763;28;20470;-80
2021/08/24 05:50:11;;;;;;;4.23;2.77;;;13.80;1.00;14.40;101405.00;;;;4977541;28;20470;-80
2021/08/24 05:52:40;;;;;;;8.33;2.60;;;13.70;1.00;14.40;101412.00;;;;4964351;28;20537;-79
2021/08/24 05:55:11;;;;;;;9.27;2.90;;;13.80;1.00;14.50;101364.00;;;;4982983;28;20479;-79
2021/08/24 05:57:39;;;;;;;4.53;2.63;;;13.80;1.00;14.60;101413.00;;;;5002594;28;20459;-79
2021/08/24 06:00:09;;;;;;;4.30;2.50;;;13.90;1.00;14.60;101412.00;;;;4987123;28;20455;-79
2021/08/24 06:02:41;;;;;;;5.90;2.47;;;14.00;1.00;14.60;101402.00;;;;4984430;28;20523;-79
2021/08/24 06:05:11;;;;;;;7.53;2.43;;;14.00;1.00;14.70;101405.00;;;;4985884;28;20510;-79
2021/08/24 06:07:40;;;;;;;5.80;3.23;;;14.10;1.00;14.80;101420.00;;;;4969386;28;20472;-79
2021/08/24 06:10:11;;;;;;;7.73;2.80;;;14.10;1.00;14.80;101419.00;;;;4988424;28;20566;-78
2021/08/24 06:12:39;;;;;;;3.90;2.50;;;14.20;1.00;14.90;101401.00;;;;4987962;28;20551;-78
2021/08/24 06:15:09;;;;;;;4.97;3.03;;;14.30;1.00;14.90;101417.00;;;;4986050;28;21116;-80
2021/08/24 06:17:38;;;;;;;4.43;2.80;;;14.30;1.00;15.00;101410.00;;;;4974228;28;20474;-79
2021/08/24 06:20:08;;;;;;;3.30;2.50;;;14.30;1.00;15.00;101399.00;;;;4984870;28;20489;-79
2021/08/24 06:22:37;;;;;;;6.13;2.47;;;14.40;1.00;15.10;101428.00;;;;4970429;28;20559;-79
2021/08/24 06:25:06;;;;;;;6.20;2.40;;;14.40;1.00;15.10;101415.00;;;;4971845;28;20483;-79
2021/08/24 06:27:36;;;;;;;4.50;2.87;;;14.50;1.00;15.20;101422.00;;;;4986123;28;20502;-79
2021/08/24 06:30:06;;;;;;;3.73;2.90;;;14.50;1.00;15.20;101418.00;;;;4972939;28;21493;-79
2021/08/24 06:32:38;;;;;;;4.87;2.30;;;14.60;1.00;15.20;101420.00;;;;4964956;28;20884;-79
2021/08/24 06:35:08;;;;;;;4.50;2.90;;;14.70;1.00;15.30;101421.00;;;;4982329;28;20506;-79
2021/08/24 06:37:36;;;;;;;5.33;2.30;;;14.70;1.00;15.40;101419.00;;;;4977360;28;20887;-79
2021/08/24 06:40:08;;;;;;;5.57;2.77;;;14.80;1.00;15.40;101412.00;;;;4971444;28;20551;-79
2021/08/24 06:42:43;;;;;;;4.10;2.40;;;14.80;1.00;15.50;101404.00;;;;4970389;28;20463;-78
2021/08/24 06:45:16;;;;;;;5.03;2.93;;;14.90;1.00;15.50;101402.00;;;;4969891;28;20485;-79
2021/08/24 06:47:44;;;;;;;6.90;2.90;;;14.90;1.00;15.60;101428.00;;;;4963383;28;20452;-79
2021/08/24 06:50:13;;;;;;;5.90;2.90;;;14.90;1.00;15.60;101410.00;;;;4971069;28;20681;-78
2021/08/24 06:52:41;;;;;;;5.13;2.90;;;15.00;1.00;15.60;101400.00;;;;4987884;28;20470;-78
2021/08/24 06:55:12;;;;;;;7.53;2.40;;;15.00;1.00;15.70;101390.00;;;;4986132;28;20502;-78
2021/08/24 06:57:44;;;;;;;6.00;2.50;;;15.10;1.00;15.80;101423.00;;;;5001914;28;20448;-78
2021/08/24 07:00:17;;;;;;;6.23;2.80;;;15.20;1.00;15.90;101409.00;;;;4975316;28;20483;-78
2021/08/24 07:02:47;;;;;;;7.13;3.00;;;15.30;1.00;15.90;101430.00;;;;4983630;28;20968;-81
2021/08/24 07:05:19;;;;;;;4.83;2.40;;;15.30;1.00;15.90;101412.00;;;;4972234;28;20482;-79
2021/08/24 07:07:47;;;;;;;6.03;2.93;;;15.40;1.00;15.90;101449.00;;;;4973120;28;20455;-79
2021/08/24 07:10:18;;;;;;;6.70;2.73;;;15.50;1.00;16.10;101434.00;;;;4990367;28;20467;-80
2021/08/24 07:12:48;;;;;;;6.70;2.73;;;15.50;1.00;16.10;101435.00;;;;4971938;28;20502;-80
2021/08/24 07:15:21;;;;;;;6.70;2.63;;;15.60;1.00;16.20;101436.00;;;;4977174;28;21273;-80
2021/08/24 07:17:54;;;;;;;7.60;2.70;;;15.60;1.00;16.20;101440.00;;;;4978514;28;20467;-80
2021/08/24 07:20:25;;;;;;;5.10;2.67;;;15.70;1.00;16.30;101442.00;;;;4982306;28;20535;-85
2021/08/24 07:22:57;;;;;;;5.77;3.10;;;15.80;1.00;16.40;101445.00;;;;4987903;28;20447;-85
2021/08/24 07:25:26;;;;;;;9.30;4.70;;;15.80;1.00;16.50;101443.00;;;;4986440;28;20507;-80
2021/08/24 07:27:56;;;;;;;6.60;2.93;;;15.90;1.00;16.50;101381.00;;;;4977939;28;21016;-82
2021/08/24 07:30:25;;;;;;;4.23;2.67;;;16.00;1.00;16.60;101442.00;;;;4975797;28;20464;-82
2021/08/24 07:32:54;;;;;;;6.53;2.50;;;16.10;1.00;16.60;101419.00;;;;4974154;28;20459;-80
2021/08/24 07:35:22;;;;;;;4.10;3.00;;;16.20;1.00;16.60;101458.00;;;;4996177;28;20483;-79
2021/08/24 07:37:51;;;;;;;3.87;2.60;;;16.00;1.00;16.60;101442.00;;;;4992132;28;20500;-82
2021/08/24 07:40:20;;;;;;;8.73;4.83;;;16.10;1.00;16.70;101427.00;;;;4996483;28;20487;-80
2021/08/24 07:42:48;;;;;;;5.87;3.17;;;16.30;1.00;16.80;101450.00;;;;4981815;28;20819;-79
2021/08/24 07:45:19;;;;;;;5.50;2.83;;;16.30;1.00;16.80;101444.00;;;;4989322;28;20522;-78
2021/08/24 07:47:49;;;;;;;5.57;2.10;;;16.30;1.00;16.90;101456.00;;;;4972815;28;20544;-79
2021/08/24 07:50:18;;;;;;;5.30;3.03;;;16.40;1.00;16.90;101449.00;;;;4970821;28;20479;-79
2021/08/24 07:52:50;;;;;;;4.70;3.50;;;16.50;1.00;17.10;101434.00;;;;4970205;28;20454;-79
2021/08/24 07:55:20;;;;;;;4.63;2.57;;;16.70;1.00;17.10;101447.00;;;;4971687;28;20475;-80
2021/08/24 07:57:49;;;;;;;5.63;4.13;;;16.60;1.00;17.10;101426.00;;;;4971915;28;20442;-80
2021/08/24 08:00:20;;;;;;;2.43;2.07;;;16.70;1.00;17.20;101446.00;;;;4970941;28;20887;-80
2021/08/24 08:02:48;;;;;;;4.80;2.30;;;16.80;1.00;17.20;101442.00;;;;4965350;28;20487;-80
2021/08/24 08:05:18;;;;;;;4.70;2.33;;;16.80;1.00;17.20;101428.00;;;;4973498;28;20573;-79
2021/08/24 08:07:46;;;;;;;6.10;2.57;;;16.90;1.00;17.40;101431.00;;;;4972060;28;20462;-81
2021/08/24 08:10:15;;;;;;;6.17;3.13;;;17.00;1.00;17.50;101446.00;;;;4971024;28;20475;-81
2021/08/24 08:12:43;;;;;;;5.47;3.20;;;17.20;1.00;17.50;101456.00;;;;4968516;28;20470;-79
2021/08/24 08:15:14;;;;;;;3.70;2.67;;;17.30;1.00;17.60;101442.00;;;;4971911;28;20479;-83
2021/08/24 08:17:44;;;;;;;9.57;3.20;;;17.30;1.00;17.70;101418.00;;;;4988321;28;20570;-81
2021/08/24 08:20:14;;;;;;;5.63;2.43;;;17.40;1.00;17.90;101444.00;;;;4974125;28;20487;-81
2021/08/24 08:22:43;;;;;;;5.00;2.50;;;17.50;1.00;17.80;101432.00;;;;4976209;28;20479;-82
2021/08/24 08:25:12;;;;;;;4.30;2.50;;;17.60;1.00;18.00;101446.00;;;;5000982;28;20480;-81
2021/08/24 08:27:41;;;;;;;7.83;2.70;;;17.70;1.00;17.90;101417.00;;;;4979343;28;21040;-81
2021/08/24 08:30:11;;;;;;;11.33;3.10;;;17.70;1.00;18.00;101457.00;;;;4977724;28;20606;-80
2021/08/24 08:32:43;;;;;;;5.83;2.73;;;17.80;1.00;18.00;101452.00;;;;4978057;28;20451;-80
2021/08/24 08:35:16;;;;;;;4.70;2.53;;;17.80;1.00;18.10;101454.00;;;;4985382;28;20475;-85
2021/08/24 08:37:45;;;;;;;4.10;2.30;;;17.90;1.00;18.10;101455.00;;;;4988062;28;20735;-82
2021/08/24 08:40:25;;;;;;;5.43;2.30;;;17.80;1.00;18.20;101441.00;;;;4988677;28;20489;-82
2021/08/24 08:43:06;;;;;;;6.43;2.43;;;17.80;1.00;18.30;101444.00;;;;4992290;28;20447;-80
2021/08/24 08:45:43;;;;;;;7.73;2.53;;;18.10;1.00;18.40;101448.00;;;;4982722;28;20478;-80
2021/08/24 08:48:47;;;;;;;6.60;2.90;;;18.30;1.00;18.70;101453.00;;;;4981493;28;20538;-80
2021/08/24 08:51:35;;;;;;;8.07;3.03;;;18.50;1.00;18.80;101464.00;;;;4977359;28;20506;-81
2021/08/24 08:54:18;;;;;;;5.23;2.70;;;18.70;1.00;18.70;101456.00;;;;4966209;28;20477;-80
2021/08/24 08:56:53;;;;;;;5.17;2.67;;;18.50;1.00;18.80;101452.00;;;;4977804;28;20452;-83
2021/08/24 08:59:28;;;;;;;4.73;2.67;;;18.50;1.00;18.80;101445.00;;;;4975387;28;20498;-82
2021/08/24 09:02:11;;;;;;;5.33;3.03;;;18.60;1.00;18.70;101424.00;;;;4977513;28;20450;-82
2021/08/24 09:04:47;;;;;;;6.30;4.07;;;18.50;1.00;18.80;101440.00;;;;4985841;28;20479;-84
2021/08/24 09:07:24;;;;;;;9.70;2.47;;;18.40;1.00;18.80;101450.00;;;;4990746;28;21384;-85
2021/08/24 09:09:53;;;;;;;6.43;3.10;;;18.40;1.00;18.80;101443.00;;;;4992011;28;20454;-82
2021/08/24 09:12:25;;;;;;;7.97;3.27;;;18.50;1.00;18.90;101434.00;;;;4980809;28;20463;-80
2021/08/24 09:14:56;;;;;;;3.30;2.10;;;18.70;1.00;19.10;101446.00;;;;4976105;28;20479;-80
2021/08/24 09:17:31;;;;;;;3.87;2.50;;;18.80;1.00;19.20;101440.00;;;;4979945;28;20443;-82
2021/08/24 09:20:07;;;;;;;5.43;2.73;;;19.00;1.00;19.40;101428.00;;;;4965902;28;20497;-80
2021/08/24 09:22:38;;;;;;;4.37;2.73;;;19.10;1.00;19.60;101453.00;;;;4976817;28;20769;-81
2021/08/24 09:25:13;;;;;;;4.83;3.07;;;19.20;1.00;19.60;101446.00;;;;4976544;28;20495;-81
2021/08/24 09:27:51;;;;;;;4.30;2.50;;;19.40;1.00;19.80;101443.00;;;;4975071;28;20447;-82
2021/08/24 09:30:20;;;;;;;6.30;2.97;;;19.50;1.00;20.00;101452.00;;;;4977973;28;20469;-80
2021/08/24 09:32:49;;;;;;;4.50;2.83;;;19.70;1.00;19.80;101461.00;;;;4980879;28;20471;-80
2021/08/24 09:35:32;;;;;;;6.10;2.87;;;19.50;1.00;19.60;101453.00;;;;5006087;28;20491;-83
2021/08/24 09:38:07;;;;;;;7.57;3.23;;;19.30;1.00;19.60;101458.00;;;;4985202;28;20450;-81
2021/08/24 09:40:40;;;;;;;3.70;2.63;;;19.30;1.00;19.70;101459.00;;;;4980631;28;20486;-82
2021/08/24 09:43:30;;;;;;;8.67;3.27;;;19.50;1.00;19.70;101456.00;;;;4996661;28;20456;-81
2021/08/24 09:46:03;;;;;;;4.77;3.20;;;19.40;1.00;19.80;101462.00;;;;4998914;28;20475;-82
2021/08/24 09:48:49;;;;;;;3.63;3.00;;;19.40;1.00;20.00;101455.00;;;;4998427;28;20466;-80
2021/08/24 09:51:33;;;;;;;5.93;3.10;;;19.50;1.00;20.00;101435.00;;;;4979678;28;20455;-80
2021/08/24 09:54:05;;;;;;;6.27;3.80;;;19.40;1.00;20.10;101456.00;;;;4991087;28;20480;-84
2021/08/24 09:56:38;;;;;;;6.90;3.63;;;19.50;1.00;20.10;101460.00;;;;4996651;28;20447;-82
2021/08/24 09:59:07;;;;;;;8.40;3.50;;;19.50;1.00;20.00;101431.00;;;;4989295;28;20515;-83
2021/08/24 10:01:48;;;;;;;8.80;3.67;;;19.70;1.00;19.80;101460.00;;;;4981894;28;20475;-81
2021/08/24 10:04:18;;;;;;;7.80;2.93;;;19.50;1.00;19.80;101442.00;;;;4974053;28;20496;-81
2021/08/24 10:07:02;;;;;;;7.20;3.03;;;19.50;1.00;19.80;101447.00;;;;4991344;28;20526;-80
2021/08/24 10:09:34;;;;;;;5.43;2.80;;;19.50;1.00;19.90;101446.00;;;;4987236;28;20456;-79
2021/08/24 10:12:22;;;;;;;5.27;3.40;;;19.70;1.00;20.00;101465.00;;;;4978417;28;20454;-79
2021/08/24 10:14:52;;;;;;;5.00;2.87;;;19.80;1.00;20.10;101459.00;;;;4966053;28;20564;-80
2021/08/24 10:17:34;;;;;;;5.90;3.13;;;19.90;1.00;20.10;101457.00;;;;4989468;28;20452;-80
2021/08/24 10:20:19;;;;;;;4.30;2.97;;;19.90;1.00;20.10;101447.00;;;;4990592;28;20518;-81
2021/08/24 10:22:52;;;;;;;4.73;3.40;;;19.90;1.00;20.10;101439.00;;;;4981291;28;20487;-79
2021/08/24 10:25:26;;;;;;;5.33;3.50;;;20.00;1.00;20.20;101427.00;;;;4978557;28;20525;-80
2021/08/24 10:28:01;;;;;;;3.90;2.73;;;19.90;1.00;20.00;101434.00;;;;4979756;28;20849;-84
2021/08/24 10:30:45;;;;;;;4.10;3.23;;;19.80;1.00;20.10;101433.00;;;;4979430;28;20974;-81
2021/08/24 10:33:29;;;;;;;4.90;3.10;;;19.80;1.00;20.20;101421.00;;;;4973305;28;20456;-81
2021/08/24 10:36:05;;;;;;;4.30;3.30;;;20.10;1.00;20.40;101419.00;;;;4973121;28;22411;-81
2021/08/24 10:38:46;;;;;;;5.50;3.50;;;20.30;1.00;20.70;101415.00;;;;4986023;28;20464;-80
2021/08/24 10:41:25;;;;;;;4.17;3.30;;;20.60;1.00;21.00;101406.00;;;;4969010;28;20554;-79
2021/08/24 10:43:57;;;;;;;3.87;2.93;;;20.80;1.00;21.30;101418.00;;;;4977981;28;20481;-79
2021/08/24 10:46:27;;;;;;;4.77;3.23;;;21.00;1.00;21.40;101417.00;;;;4969717;28;20459;-80
2021/08/24 10:48:57;;;;;;;3.70;3.07;;;21.00;1.00;21.30;101426.00;;;;4972677;28;20494;-80
2021/08/24 10:51:38;;;;;;;3.90;2.73;;;20.90;1.00;21.30;101419.00;;;;4970832;28;21239;-78
2021/08/24 10:54:36;;;;;;;4.90;2.90;;;20.90;1.00;21.30;101427.00;;;;4971734;28;20566;-79
2021/08/24 10:57:25;;;;;;;8.07;3.50;;;21.10;1.00;21.30;101424.00;;;;4971335;28;20537;-79
2021/08/24 11:00:05;;;;;;;4.47;3.10;;;21.10;1.00;21.60;101406.00;;;;4961767;28;20459;-79
2021/08/24 11:03:08;;;;;;;5.70;3.33;;;21.30;1.00;21.80;101425.00;;;;4971538;28;20479;-79
2021/08/24 11:05:49;;;;;;;4.53;3.33;;;21.40;1.00;21.70;101422.00;;;;4974007;28;20484;-79
2021/08/24 11:08:35;;;;;;;7.50;3.23;;;21.40;1.00;21.90;101434.00;;;;4972525;28;20544;-79
2021/08/24 11:11:16;;;;;;;3.60;3.00;;;21.60;1.00;22.00;101421.00;;;;4966496;28;20467;-80
2021/08/24 11:13:54;;;;;;;9.33;4.57;;;21.70;1.00;22.20;101408.00;;;;4975452;28;20507;-79
2021/08/24 11:16:43;;;;;;;6.37;3.57;;;22.00;1.00;22.60;101422.00;;;;4973756;28;20500;-79
2021/08/24 11:19:25;;;;;;;5.17;4.40;;;22.20;1.00;22.90;101423.00;;;;4974880;28;20905;-79
2021/08/24 11:22:06;;;;;;;6.13;4.20;;;22.20;1.00;23.00;101431.00;;;;4970155;28;20518;-81